UPSVAC Airport Information Service

Oakland International Airport

ICAO: KOAK Country: United States
Latitude: 37.7213 Longitude: -122.22
Latest Arrival : UPS1142 (KSDF-KOAK) Latest Departure : UPS189 (KOAK-KSDF)


WX CaptureLIVE
Data provided by noaa.gov | Fetched at 09:24:17

METAR : KOAK 270853Z 14018G25KT 3SM +RA BR SCT024 OVC032 09/07 A2969 RMK AO2 PK WND 14042/0821 SLP052 P0025 60052 T00940067 53004

TAF : KOAK 270523Z 2706/2812 13030G42KT 5SM -RA BR SCT025 OVC035 WS020/19050KT FM270800 15032G48KT 4SM +RA BR SCT015 OVC025 WS020/21060KT FM271000 16015G25KT 5SM -RA BR BKN015 OVC025 WS020/20035KT FM271800 14011G18KT 6SM -SHRA BR SCT015 OVC025 FM272300 13017G25KT 5SM -SHRA BR BKN030 OVC040 FM280300 13021G30KT 5SM -SHRA BR BKN020 OVC030 FM280700 13014KT 6SM -SHRA BR BKN015 OVC025


Runway Data for KOAK
Data provided by openaviationdata.com

Runway ID Mag Var Hdg Length Elevation Surface ILS Freq ILS Id ILS Slope
09L 16 96° 5447 ft 6 ft Asphalt -- -- --
09R 16 96° 6206 ft 6 ft Asphalt -- -- --
11 16 114° 9998 ft 6 ft Asphalt 111.9 IAAZ 2
15 16 148° 3369 ft 6 ft Asphalt -- -- --
27L 16 276° 6206 ft 6 ft Asphalt -- -- --
27R 16 276° 5447 ft 6 ft Asphalt 109.9 IOAK 2
29 16 294° 9998 ft 6 ft Asphalt 108.7 IINB 3
33 16 328° 3369 ft 6 ft Asphalt -- -- --

Oakland International Airport, United States
Use only for reference purposes



Not for navigational purposes.